sensor_id;sensor_type;location;lat;lon;timestamp;pressure;altitude;pressure_sealevel;temperature;humidity
51123;BME280;37162;41.724;13.346;2023-05-25T00:01:34;96557.31;;;17.95;78.67
51123;BME280;37162;41.724;13.346;2023-05-25T00:04:00;96560.81;;;17.95;78.67
51123;BME280;37162;41.724;13.346;2023-05-25T00:06:29;96544.66;;;17.95;78.68
51123;BME280;37162;41.724;13.346;2023-05-25T00:08:55;96553.00;;;17.94;78.68
51123;BME280;37162;41.724;13.346;2023-05-25T00:11:22;96552.75;;;17.95;78.93
51123;BME280;37162;41.724;13.346;2023-05-25T00:13:49;96553.81;;;17.94;78.79
51123;BME280;37162;41.724;13.346;2023-05-25T00:16:14;96552.19;;;17.93;78.84
51123;BME280;37162;41.724;13.346;2023-05-25T00:18:40;96558.38;;;17.94;78.64
51123;BME280;37162;41.724;13.346;2023-05-25T00:21:05;96561.06;;;17.94;78.65
51123;BME280;37162;41.724;13.346;2023-05-25T00:23:32;96560.25;;;17.93;78.72
51123;BME280;37162;41.724;13.346;2023-05-25T00:25:58;96554.06;;;17.93;78.79
51123;BME280;37162;41.724;13.346;2023-05-25T00:28:23;96558.59;;;17.92;78.61
51123;BME280;37162;41.724;13.346;2023-05-25T00:30:49;96558.59;;;17.92;78.53
51123;BME280;37162;41.724;13.346;2023-05-25T00:33:15;96559.44;;;17.93;78.52
51123;BME280;37162;41.724;13.346;2023-05-25T00:35:43;96555.69;;;17.94;78.50
51123;BME280;37162;41.724;13.346;2023-05-25T00:38:16;96559.44;;;17.93;78.47
51123;BME280;37162;41.724;13.346;2023-05-25T00:40:42;96565.63;;;17.93;78.53
51123;BME280;37162;41.724;13.346;2023-05-25T00:43:08;96558.59;;;17.92;78.34
51123;BME280;37162;41.724;13.346;2023-05-25T00:45:34;96559.44;;;17.93;78.67
51123;BME280;37162;41.724;13.346;2023-05-25T00:48:00;96561.88;;;17.94;78.54
51123;BME280;37162;41.724;13.346;2023-05-25T00:50:40;96568.31;;;17.93;78.71
51123;BME280;37162;41.724;13.346;2023-05-25T00:53:07;96555.00;;;17.86;78.52
51123;BME280;37162;41.724;13.346;2023-05-25T00:58:16;96571.81;;;17.94;78.75
51123;BME280;37162;41.724;13.346;2023-05-25T01:00:45;96565.38;;;17.95;78.70
51123;BME280;37162;41.724;13.346;2023-05-25T01:03:14;96565.38;;;17.95;79.08
51123;BME280;37162;41.724;13.346;2023-05-25T01:05:47;96568.06;;;17.95;78.89
51123;BME280;37162;41.724;13.346;2023-05-25T01:08:13;96569.94;;;17.94;78.87
51123;BME280;37162;41.724;13.346;2023-05-25T01:10:42;96564.56;;;17.94;78.70
51123;BME280;37162;41.724;13.346;2023-05-25T01:13:09;96558.38;;;17.94;78.96
51123;BME280;37162;41.724;13.346;2023-05-25T01:15:37;96563.75;;;17.94;78.79
51123;BME280;37162;41.724;13.346;2023-05-25T01:18:03;96560.25;;;17.93;78.70
51123;BME280;37162;41.724;13.346;2023-05-25T01:20:29;96562.13;;;17.93;78.66
51123;BME280;37162;41.724;13.346;2023-05-25T01:23:11;96548.00;;;17.85;78.56
51123;BME280;37162;41.724;13.346;2023-05-25T01:25:42;96555.09;;;17.92;78.64
51123;BME280;37162;41.724;13.346;2023-05-25T01:28:24;96562.34;;;17.91;78.54
51123;BME280;37162;41.724;13.346;2023-05-25T01:30:52;96552.41;;;17.92;78.68
51123;BME280;37162;41.724;13.346;2023-05-25T01:33:21;96554.28;;;17.91;78.46
51123;BME280;37162;41.724;13.346;2023-05-25T01:35:47;96559.66;;;17.91;78.42
51123;BME280;37162;41.724;13.346;2023-05-25T01:38:13;96556.16;;;17.91;78.51
51123;BME280;37162;41.724;13.346;2023-05-25T01:40:39;96554.28;;;17.91;78.54
51123;BME280;37162;41.724;13.346;2023-05-25T01:43:04;96553.47;;;17.91;78.39
51123;BME280;37162;41.724;13.346;2023-05-25T01:45:30;96560.72;;;17.90;78.42
51123;BME280;37162;41.724;13.346;2023-05-25T01:48:05;96558.84;;;17.91;78.39
51123;BME280;37162;41.724;13.346;2023-05-25T01:50:39;96548.25;;;17.84;78.42
51123;BME280;37162;41.724;13.346;2023-05-25T01:53:09;96551.59;;;17.91;78.59
51123;BME280;37162;41.724;13.346;2023-05-25T01:55:53;96558.03;;;17.90;78.40
51123;BME280;37162;41.724;13.346;2023-05-25T01:58:19;96560.72;;;17.90;78.31
51123;BME280;37162;41.724;13.346;2023-05-25T02:00:48;96555.34;;;17.90;78.32
51123;BME280;37162;41.724;13.346;2023-05-25T02:03:16;96565.28;;;17.90;78.47
51123;BME280;37162;41.724;13.346;2023-05-25T02:05:42;96559.91;;;17.90;78.53
51123;BME280;37162;41.724;13.346;2023-05-25T02:08:08;96565.75;;;17.86;78.45
51123;BME280;37162;41.724;13.346;2023-05-25T02:10:33;96569.03;;;17.88;78.34
51123;BME280;37162;41.724;13.346;2023-05-25T02:12:59;96574.41;;;17.88;78.40
51123;BME280;37162;41.724;13.346;2023-05-25T02:15:29;96558.44;;;17.82;78.43
51123;BME280;37162;41.724;13.346;2023-05-25T02:17:55;96563.88;;;17.87;78.50
51123;BME280;37162;41.724;13.346;2023-05-25T02:20:22;96562.50;;;17.84;78.31
51123;BME280;37162;41.724;13.346;2023-05-25T02:22:47;96567.38;;;17.87;78.38
51123;BME280;37162;41.724;13.346;2023-05-25T02:25:12;96566.56;;;17.87;78.57
51123;BME280;37162;41.724;13.346;2023-05-25T02:27:38;96559.56;;;17.86;78.49
51123;BME280;37162;41.724;13.346;2023-05-25T02:30:04;96560.38;;;17.86;78.52
51123;BME280;37162;41.724;13.346;2023-05-25T02:32:30;96560.38;;;17.86;78.41
51123;BME280;37162;41.724;13.346;2023-05-25T02:34:58;96554.19;;;17.86;78.40
51123;BME280;37162;41.724;13.346;2023-05-25T02:37:23;96556.31;;;17.84;78.66
51123;BME280;37162;41.724;13.346;2023-05-25T02:39:49;96560.38;;;17.86;78.69
51123;BME280;37162;41.724;13.346;2023-05-25T02:42:14;96563.06;;;17.86;78.73
51123;BME280;37162;41.724;13.346;2023-05-25T02:44:40;96563.06;;;17.86;78.64
51123;BME280;37162;41.724;13.346;2023-05-25T02:47:06;96566.56;;;17.87;78.65
51123;BME280;37162;41.724;13.346;2023-05-25T02:49:32;96563.88;;;17.87;78.82
51123;BME280;37162;41.724;13.346;2023-05-25T02:51:58;96566.56;;;17.87;78.73
51123;BME280;37162;41.724;13.346;2023-05-25T02:54:24;96573.34;;;17.90;78.84
51123;BME280;37162;41.724;13.346;2023-05-25T02:56:49;96572.53;;;17.89;78.90
51123;BME280;37162;41.724;13.346;2023-05-25T02:59:15;96577.91;;;17.89;78.81
51123;BME280;37162;41.724;13.346;2023-05-25T03:01:40;96577.91;;;17.89;78.93
51123;BME280;37162;41.724;13.346;2023-05-25T03:04:06;96572.53;;;17.89;78.95
51123;BME280;37162;41.724;13.346;2023-05-25T03:06:31;96565.28;;;17.90;79.08
51123;BME280;37162;41.724;13.346;2023-05-25T03:08:57;96557.94;;;17.85;78.97
51123;BME280;37162;41.724;13.346;2023-05-25T03:11:23;96571.13;;;17.86;78.92
51123;BME280;37162;41.724;13.346;2023-05-25T03:13:49;96569.03;;;17.88;78.95
51123;BME280;37162;41.724;13.346;2023-05-25T03:16:14;96577.09;;;17.88;78.80
51123;BME280;37162;41.724;13.346;2023-05-25T03:18:40;96571.72;;;17.88;78.80
51123;BME280;37162;41.724;13.346;2023-05-25T03:21:05;96570.06;;;17.87;78.77
51123;BME280;37162;41.724;13.346;2023-05-25T03:23:31;96570.91;;;17.88;78.77
51123;BME280;37162;41.724;13.346;2023-05-25T03:25:56;96569.25;;;17.87;78.85
51123;BME280;37162;41.724;13.346;2023-05-25T03:28:22;96570.06;;;17.87;78.65
51123;BME280;37162;41.724;13.346;2023-05-25T03:30:48;96566.34;;;17.88;78.89
51123;BME280;37162;41.724;13.346;2023-05-25T03:33:13;96572.75;;;17.87;78.78
51123;BME280;37162;41.724;13.346;2023-05-25T03:35:39;96576.28;;;17.88;78.62
51123;BME280;37162;41.724;13.346;2023-05-25T03:38:04;96577.09;;;17.88;78.51
51123;BME280;37162;41.724;13.346;2023-05-25T03:40:30;96580.59;;;17.89;78.67
51123;BME280;37162;41.724;13.346;2023-05-25T03:42:55;96581.41;;;17.90;78.75
51123;BME280;37162;41.724;13.346;2023-05-25T03:45:21;96584.91;;;17.90;78.72
51123;BME280;37162;41.724;13.346;2023-05-25T03:47:46;96583.28;;;17.89;78.76
51123;BME280;37162;41.724;13.346;2023-05-25T03:50:12;96585.72;;;17.91;78.82
51123;BME280;37162;41.724;13.346;2023-05-25T03:52:37;96581.41;;;17.90;78.80
51123;BME280;37162;41.724;13.346;2023-05-25T03:55:03;96583.03;;;17.91;78.82
51123;BME280;37162;41.724;13.346;2023-05-25T03:57:29;96590.03;;;17.92;78.80
51123;BME280;37162;41.724;13.346;2023-05-25T03:59:55;96593.78;;;17.91;78.75
51123;BME280;37162;41.724;13.346;2023-05-25T04:02:20;96588.41;;;17.91;78.81
51123;BME280;37162;41.724;13.346;2023-05-25T04:04:46;96599.16;;;17.91;79.05
51123;BME280;37162;41.724;13.346;2023-05-25T04:07:14;96595.41;;;17.92;79.00
51123;BME280;37162;41.724;13.346;2023-05-25T04:09:40;96599.97;;;17.91;79.08
51123;BME280;37162;41.724;13.346;2023-05-25T04:12:05;96598.09;;;17.92;78.99
51123;BME280;37162;41.724;13.346;2023-05-25T04:14:31;96599.97;;;17.91;79.06
51123;BME280;37162;41.724;13.346;2023-05-25T04:16:56;96597.78;;;17.88;79.24
51123;BME280;37162;41.724;13.346;2023-05-25T04:19:22;96601.84;;;17.91;79.07
51123;BME280;37162;41.724;13.346;2023-05-25T04:21:47;96602.66;;;17.91;78.92
51123;BME280;37162;41.724;13.346;2023-05-25T04:24:12;96602.66;;;17.91;78.98
51123;BME280;37162;41.724;13.346;2023-05-25T04:26:38;96605.34;;;17.91;78.85
51123;BME280;37162;41.724;13.346;2023-05-25T04:29:04;96596.63;;;17.84;79.02
51123;BME280;37162;41.724;13.346;2023-05-25T04:31:31;96608.28;;;17.90;79.09
51123;BME280;37162;41.724;13.346;2023-05-25T04:33:56;96620.66;;;17.91;79.02
51123;BME280;37162;41.724;13.346;2023-05-25T04:36:23;96621.47;;;17.91;78.84
51123;BME280;37162;41.724;13.346;2023-05-25T04:38:49;96623.09;;;17.92;78.76
51123;BME280;37162;41.724;13.346;2023-05-25T04:41:16;96622.28;;;17.92;78.74
51123;BME280;37162;41.724;13.346;2023-05-25T04:43:42;96623.09;;;17.92;78.74
51123;BME280;37162;41.724;13.346;2023-05-25T04:46:10;96624.75;;;17.93;78.73
51123;BME280;37162;41.724;13.346;2023-05-25T04:48:35;96619.03;;;17.90;78.76
51123;BME280;37162;41.724;13.346;2023-05-25T04:51:02;96625.56;;;17.94;78.90
51123;BME280;37162;41.724;13.346;2023-05-25T04:53:29;96627.66;;;17.92;78.71
51123;BME280;37162;41.724;13.346;2023-05-25T04:55:54;96594.47;;;17.69;78.76
51123;BME280;37162;41.724;13.346;2023-05-25T04:58:21;96630.94;;;17.94;78.71
51123;BME280;37162;41.724;13.346;2023-05-25T05:00:46;96628.97;;;17.89;78.83
51123;BME280;37162;41.724;13.346;2023-05-25T05:03:12;96636.31;;;17.94;78.72
51123;BME280;37162;41.724;13.346;2023-05-25T05:05:38;96633.84;;;17.92;78.63
51123;BME280;37162;41.724;13.346;2023-05-25T05:08:03;96632.00;;;17.93;78.60
51123;BME280;37162;41.724;13.346;2023-05-25T05:10:29;96637.38;;;17.93;78.40
51123;BME280;37162;41.724;13.346;2023-05-25T05:12:54;96637.59;;;17.91;78.21
51123;BME280;37162;41.724;13.346;2023-05-25T05:15:20;96642.97;;;17.91;78.23
51123;BME280;37162;41.724;13.346;2023-05-25T05:17:45;96639.22;;;17.92;78.10
51123;BME280;37162;41.724;13.346;2023-05-25T05:20:12;96646.25;;;17.93;77.94
51123;BME280;37162;41.724;13.346;2023-05-25T05:22:37;96641.69;;;17.94;77.87
51123;BME280;37162;41.724;13.346;2023-05-25T05:25:03;96630.94;;;17.94;78.12
51123;BME280;37162;41.724;13.346;2023-05-25T05:27:29;96649.50;;;17.95;78.13
51123;BME280;37162;41.724;13.346;2023-05-25T05:29:54;96647.63;;;17.96;77.88
51123;BME280;37162;41.724;13.346;2023-05-25T05:32:20;96653.59;;;17.98;78.18
51123;BME280;37162;41.724;13.346;2023-05-25T05:34:45;96654.41;;;17.98;78.00
51123;BME280;37162;41.724;13.346;2023-05-25T05:37:11;96649.84;;;17.99;77.88
51123;BME280;37162;41.724;13.346;2023-05-25T05:39:36;96656.03;;;17.99;78.08
51123;BME280;37162;41.724;13.346;2023-05-25T05:42:02;96630.34;;;17.92;78.07
51123;BME280;37162;41.724;13.346;2023-05-25T05:44:27;96648.53;;;18.01;77.90
51123;BME280;37162;41.724;13.346;2023-05-25T05:46:54;96644.81;;;18.02;78.01
51123;BME280;37162;41.724;13.346;2023-05-25T05:49:28;96642.94;;;18.03;77.99
51123;BME280;37162;41.724;13.346;2023-05-25T05:51:53;96633.47;;;18.00;78.07
51123;BME280;37162;41.724;13.346;2023-05-25T05:54:19;96649.13;;;18.03;77.94
51123;BME280;37162;41.724;13.346;2023-05-25T05:56:45;96649.69;;;18.05;77.93
51123;BME280;37162;41.724;13.346;2023-05-25T05:59:10;96646.97;;;18.05;77.77
51123;BME280;37162;41.724;13.346;2023-05-25T06:01:36;96644.28;;;18.05;77.52
51123;BME280;37162;41.724;13.346;2023-05-25T06:04:04;96645.91;;;18.06;77.58
51123;BME280;37162;41.724;13.346;2023-05-25T06:06:29;96650.25;;;18.07;77.71
51123;BME280;37162;41.724;13.346;2023-05-25T06:08:57;96651.88;;;18.08;77.49
51123;BME280;37162;41.724;13.346;2023-05-25T06:11:22;96651.06;;;18.08;77.55
51123;BME280;37162;41.724;13.346;2023-05-25T06:13:48;96649.19;;;18.08;77.70
51123;BME280;37162;41.724;13.346;2023-05-25T06:16:13;96652.69;;;18.09;77.75
51123;BME280;37162;41.724;13.346;2023-05-25T06:18:38;96653.50;;;18.09;77.68
51123;BME280;37162;41.724;13.346;2023-05-25T06:21:05;96648.88;;;18.05;77.59
51123;BME280;37162;41.724;13.346;2023-05-25T06:23:30;96652.44;;;18.10;77.70
51123;BME280;37162;41.724;13.346;2023-05-25T06:25:56;96661.31;;;18.11;77.83
51123;BME280;37162;41.724;13.346;2023-05-25T06:28:21;96664.59;;;18.13;77.83
51123;BME280;37162;41.724;13.346;2023-05-25T06:30:47;96667.28;;;18.13;77.82
51123;BME280;37162;41.724;13.346;2023-05-25T06:33:12;96661.91;;;18.13;77.92
51123;BME280;37162;41.724;13.346;2023-05-25T06:35:38;96657.25;;;18.08;77.70
51123;BME280;37162;41.724;13.346;2023-05-25T06:38:03;96667.63;;;18.17;77.83
51123;BME280;37162;41.724;13.346;2023-05-25T06:40:28;96664.69;;;18.18;77.74
51123;BME280;37162;41.724;13.346;2023-05-25T06:42:54;96656.88;;;18.17;77.66
51123;BME280;37162;41.724;13.346;2023-05-25T06:45:20;96666.06;;;18.21;77.64
51123;BME280;37162;41.724;13.346;2023-05-25T06:47:45;96655.38;;;18.09;77.65
51123;BME280;37162;41.724;13.346;2023-05-25T06:50:11;96671.22;;;18.22;77.54
51123;BME280;37162;41.724;13.346;2023-05-25T06:52:36;96673.66;;;18.24;77.57
51123;BME280;37162;41.724;13.346;2023-05-25T06:55:02;96682.53;;;18.24;77.71
51123;BME280;37162;41.724;13.346;2023-05-25T06:57:28;96679.03;;;18.24;77.69
51123;BME280;37162;41.724;13.346;2023-05-25T06:59:53;96679.84;;;18.24;77.51
51123;BME280;37162;41.724;13.346;2023-05-25T07:02:19;96678.56;;;18.27;77.50
51123;BME280;37162;41.724;13.346;2023-05-25T07:04:45;96672.19;;;18.33;77.81
51123;BME280;37162;41.724;13.346;2023-05-25T07:07:10;96673.59;;;18.35;77.38
51123;BME280;37162;41.724;13.346;2023-05-25T07:09:37;96662.31;;;18.38;77.34
51123;BME280;37162;41.724;13.346;2023-05-25T07:12:04;96661.25;;;18.39;77.05
51123;BME280;37162;41.724;13.346;2023-05-25T07:14:36;96659.25;;;18.47;76.85
51123;BME280;37162;41.724;13.346;2023-05-25T07:17:01;96650.69;;;18.50;76.83
51123;BME280;37162;41.724;13.346;2023-05-25T07:19:27;96654.34;;;18.60;76.95
51123;BME280;37162;41.724;13.346;2023-05-25T07:21:52;96663.47;;;18.59;76.82
51123;BME280;37162;41.724;13.346;2023-05-25T07:24:18;96658.31;;;18.58;76.66
51123;BME280;37162;41.724;13.346;2023-05-25T07:26:43;96660.47;;;18.56;76.63
51123;BME280;37162;41.724;13.346;2023-05-25T07:29:09;96662.34;;;18.55;76.56
51123;BME280;37162;41.724;13.346;2023-05-25T07:31:36;96667.13;;;18.53;76.51
51123;BME280;37162;41.724;13.346;2023-05-25T07:34:01;96666.31;;;18.53;76.41
51123;BME280;37162;41.724;13.346;2023-05-25T07:36:27;96664.69;;;18.52;76.43
51123;BME280;37162;41.724;13.346;2023-05-25T07:38:52;96669.25;;;18.51;76.52
51123;BME280;37162;41.724;13.346;2023-05-25T07:41:18;96667.66;;;18.50;76.54
51123;BME280;37162;41.724;13.346;2023-05-25T07:43:43;96670.56;;;18.49;76.49
51123;BME280;37162;41.724;13.346;2023-05-25T07:46:09;96668.13;;;18.47;76.65
51123;BME280;37162;41.724;13.346;2023-05-25T07:48:35;96670.00;;;18.47;76.79
51123;BME280;37162;41.724;13.346;2023-05-25T07:51:01;96671.06;;;18.46;76.65
51123;BME280;37162;41.724;13.346;2023-05-25T07:53:27;96669.44;;;18.45;76.91
51123;BME280;37162;41.724;13.346;2023-05-25T07:55:52;96666.97;;;18.43;77.07
51123;BME280;37162;41.724;13.346;2023-05-25T07:58:18;96665.09;;;18.44;76.98
51123;BME280;37162;41.724;13.346;2023-05-25T08:00:43;96673.16;;;18.44;76.98
51123;BME280;37162;41.724;13.346;2023-05-25T08:03:09;96674.50;;;18.41;77.06
51123;BME280;37162;41.724;13.346;2023-05-25T08:05:35;96678.81;;;18.42;77.08
51123;BME280;37162;41.724;13.346;2023-05-25T08:08:00;96666.34;;;18.36;77.01
51123;BME280;37162;41.724;13.346;2023-05-25T08:10:26;96668.03;;;18.42;77.18
51123;BME280;37162;41.724;13.346;2023-05-25T08:12:56;96670.72;;;18.42;77.04
51123;BME280;37162;41.724;13.346;2023-05-25T08:15:21;96667.22;;;18.42;77.09
51123;BME280;37162;41.724;13.346;2023-05-25T08:17:47;96667.22;;;18.42;77.12
51123;BME280;37162;41.724;13.346;2023-05-25T08:20:15;96667.22;;;18.42;77.10
51123;BME280;37162;41.724;13.346;2023-05-25T08:22:41;96668.78;;;18.37;77.04
51123;BME280;37162;41.724;13.346;2023-05-25T08:25:07;96672.34;;;18.43;77.15
51123;BME280;37162;41.724;13.346;2023-05-25T08:27:33;96670.47;;;18.44;77.05
51123;BME280;37162;41.724;13.346;2023-05-25T08:29:58;96680.19;;;18.45;77.05
51123;BME280;37162;41.724;13.346;2023-05-25T08:32:24;96672.94;;;18.45;76.88
51123;BME280;37162;41.724;13.346;2023-05-25T08:34:50;96668.28;;;18.41;76.97
51123;BME280;37162;41.724;13.346;2023-05-25T08:37:15;96666.75;;;18.45;76.94
51123;BME280;37162;41.724;13.346;2023-05-25T08:39:42;96675.13;;;18.48;76.73
51123;BME280;37162;41.724;13.346;2023-05-25T08:42:07;96674.91;;;18.50;76.54
51123;BME280;37162;41.724;13.346;2023-05-25T08:44:35;96673.03;;;18.50;76.64
51123;BME280;37162;41.724;13.346;2023-05-25T08:47:07;96677.34;;;18.51;76.56
51123;BME280;37162;41.724;13.346;2023-05-25T08:49:37;96669.25;;;18.51;76.76
51123;BME280;37162;41.724;13.346;2023-05-25T08:52:04;96671.69;;;18.53;76.64
51123;BME280;37162;41.724;13.346;2023-05-25T08:54:34;96678.75;;;18.54;76.63
51123;BME280;37162;41.724;13.346;2023-05-25T08:57:14;96681.97;;;18.56;76.46
51123;BME280;37162;41.724;13.346;2023-05-25T09:00:03;96680.34;;;18.55;76.56
51123;BME280;37162;41.724;13.346;2023-05-25T09:02:51;96682.78;;;18.56;76.51
51123;BME280;37162;41.724;13.346;2023-05-25T09:05:19;96681.72;;;18.57;76.46
51123;BME280;37162;41.724;13.346;2023-05-25T09:07:45;96672.50;;;18.53;76.31
51123;BME280;37162;41.724;13.346;2023-05-25T09:10:11;96674.47;;;18.58;76.35
51123;BME280;37162;41.724;13.346;2023-05-25T09:12:37;96683.94;;;18.60;76.35
51123;BME280;37162;41.724;13.346;2023-05-25T09:15:04;96685.56;;;18.61;76.29
51123;BME280;37162;41.724;13.346;2023-05-25T09:17:30;96676.44;;;18.62;76.16
51123;BME280;37162;41.724;13.346;2023-05-25T09:19:56;96666.66;;;18.56;76.27
51123;BME280;37162;41.724;13.346;2023-05-25T09:22:21;96682.13;;;18.66;76.27
51123;BME280;37162;41.724;13.346;2023-05-25T09:24:47;96693.50;;;18.68;76.06
51123;BME280;37162;41.724;13.346;2023-05-25T09:27:17;96694.34;;;18.69;76.06
51123;BME280;37162;41.724;13.346;2023-05-25T09:29:50;96689.16;;;18.67;75.98
51123;BME280;37162;41.724;13.346;2023-05-25T09:32:17;96693.00;;;18.71;75.94
51123;BME280;37162;41.724;13.346;2023-05-25T09:34:43;96694.63;;;18.72;75.93
51123;BME280;37162;41.724;13.346;2023-05-25T09:37:14;96703.03;;;18.76;75.93
51123;BME280;37162;41.724;13.346;2023-05-25T09:39:41;96698.47;;;18.76;75.66
51123;BME280;37162;41.724;13.346;2023-05-25T09:42:06;96700.13;;;18.77;75.65
51123;BME280;37162;41.724;13.346;2023-05-25T09:44:32;96691.78;;;18.79;75.73
51123;BME280;37162;41.724;13.346;2023-05-25T09:46:58;96689.09;;;18.79;75.70
51123;BME280;37162;41.724;13.346;2023-05-25T09:49:23;96689.09;;;18.79;75.69
51123;BME280;37162;41.724;13.346;2023-05-25T09:51:50;96693.97;;;18.82;75.69
51123;BME280;37162;41.724;13.346;2023-05-25T09:54:15;96701.81;;;18.83;75.38
51123;BME280;37162;41.724;13.346;2023-05-25T09:56:41;96695.38;;;18.84;75.45
51123;BME280;37162;41.724;13.346;2023-05-25T09:59:06;96701.31;;;18.86;75.45
51123;BME280;37162;41.724;13.346;2023-05-25T10:01:33;96682.09;;;18.78;75.17
51123;BME280;37162;41.724;13.346;2023-05-25T10:03:59;96697.56;;;18.87;75.30
51123;BME280;37162;41.724;13.346;2023-05-25T10:06:25;96698.38;;;18.88;75.24
51123;BME280;37162;41.724;13.346;2023-05-25T10:08:53;96693.22;;;18.86;75.16
51123;BME280;37162;41.724;13.346;2023-05-25T10:14:41;96696.03;;;18.92;75.07
51123;BME280;37162;41.724;13.346;2023-05-25T10:17:09;96706.53;;;18.93;75.01
51123;BME280;37162;41.724;13.346;2023-05-25T10:19:40;96698.22;;;18.95;74.95
51123;BME280;37162;41.724;13.346;2023-05-25T10:22:15;96690.13;;;18.95;74.89
51123;BME280;37162;41.724;13.346;2023-05-25T10:28:11;96695.84;;;18.98;74.76
51123;BME280;37162;41.724;13.346;2023-05-25T10:30:27;96692.81;;;18.95;74.69
51123;BME280;37162;41.724;13.346;2023-05-25T10:32:54;96694.34;;;19.07;74.85
51123;BME280;37162;41.724;13.346;2023-05-25T10:35:22;96699.50;;;19.09;74.62
51123;BME280;37162;41.724;13.346;2023-05-25T10:37:51;96696.78;;;19.09;74.56
51123;BME280;37162;41.724;13.346;2023-05-25T10:40:18;96695.72;;;19.10;74.50
51123;BME280;37162;41.724;13.346;2023-05-25T10:42:45;96702.19;;;19.09;74.46
51123;BME280;37162;41.724;13.346;2023-05-25T10:45:10;96697.59;;;19.09;74.31
51123;BME280;37162;41.724;13.346;2023-05-25T10:47:39;96702.19;;;19.09;74.38
51123;BME280;37162;41.724;13.346;2023-05-25T10:50:28;96696.78;;;19.09;74.35
51123;BME280;37162;41.724;13.346;2023-05-25T10:53:00;96703.00;;;19.09;74.35
51123;BME280;37162;41.724;13.346;2023-05-25T10:55:27;96693.69;;;19.00;74.24
51123;BME280;37162;41.724;13.346;2023-05-25T10:58:13;96707.56;;;19.09;74.25
51123;BME280;37162;41.724;13.346;2023-05-25T11:00:39;96702.19;;;19.09;74.29
51123;BME280;37162;41.724;13.346;2023-05-25T11:03:05;96698.34;;;19.05;74.13
51123;BME280;37162;41.724;13.346;2023-05-25T11:05:35;96703.25;;;19.08;74.13
51123;BME280;37162;41.724;13.346;2023-05-25T11:08:09;96691.94;;;19.06;74.36
51123;BME280;37162;41.724;13.346;2023-05-25T11:16:51;96684.41;;;19.08;74.27
51123;BME280;37162;41.724;13.346;2023-05-25T11:18:55;96681.72;;;19.08;74.23
51123;BME280;37162;41.724;13.346;2023-05-25T11:21:40;96682.53;;;19.08;74.18
51123;BME280;37162;41.724;13.346;2023-05-25T11:24:14;96673.63;;;19.08;74.16
51123;BME280;37162;41.724;13.346;2023-05-25T11:26:56;96677.94;;;19.09;74.16
51123;BME280;37162;41.724;13.346;2023-05-25T11:29:22;96666.34;;;19.08;74.11
51123;BME280;37162;41.724;13.346;2023-05-25T11:31:54;96665.28;;;19.09;74.10
51123;BME280;37162;41.724;13.346;2023-05-25T11:34:21;96657.47;;;19.08;74.05
51123;BME280;37162;41.724;13.346;2023-05-25T11:36:52;96668.25;;;19.08;74.08
51123;BME280;37162;41.724;13.346;2023-05-25T11:39:19;96670.13;;;19.07;74.17
51123;BME280;37162;41.724;13.346;2023-05-25T11:41:51;96666.63;;;19.07;74.13
51123;BME280;37162;41.724;13.346;2023-05-25T11:44:27;96666.63;;;19.07;74.01
51123;BME280;37162;41.724;13.346;2023-05-25T11:46:53;96661.25;;;19.07;74.32
51123;BME280;37162;41.724;13.346;2023-05-25T11:49:22;96659.63;;;19.06;74.16
51123;BME280;37162;41.724;13.346;2023-05-25T11:51:48;96656.06;;;19.05;74.14
51123;BME280;37162;41.724;13.346;2023-05-25T11:54:29;96657.72;;;19.06;74.09
51123;BME280;37162;41.724;13.346;2023-05-25T11:56:56;96662.53;;;19.04;74.17
51123;BME280;37162;41.724;13.346;2023-05-25T11:59:28;96653.38;;;19.05;74.25
51123;BME280;37162;41.724;13.346;2023-05-25T12:01:57;96659.84;;;19.04;74.09
51123;BME280;37162;41.724;13.346;2023-05-25T12:04:34;96657.16;;;19.04;74.13
51123;BME280;37162;41.724;13.346;2023-05-25T12:07:08;96647.44;;;19.03;74.21
51123;BME280;37162;41.724;13.346;2023-05-25T12:09:34;96650.94;;;19.04;74.24
51123;BME280;37162;41.724;13.346;2023-05-25T12:12:02;96647.19;;;19.05;74.19
51123;BME280;37162;41.724;13.346;2023-05-25T12:14:28;96648.25;;;19.04;74.08
51123;BME280;37162;41.724;13.346;2023-05-25T12:16:55;96644.69;;;18.98;74.07
51123;BME280;37162;41.724;13.346;2023-05-25T12:19:20;96649.06;;;19.04;74.10
51123;BME280;37162;41.724;13.346;2023-05-25T12:21:46;96660.66;;;19.05;74.14
51123;BME280;37162;41.724;13.346;2023-05-25T12:24:16;96660.66;;;19.05;74.01
51123;BME280;37162;41.724;13.346;2023-05-25T12:26:52;96661.72;;;19.04;74.04
51123;BME280;37162;41.724;13.346;2023-05-25T12:29:25;96661.72;;;19.04;74.03
51123;BME280;37162;41.724;13.346;2023-05-25T12:31:50;96669.00;;;19.03;74.05
51123;BME280;37162;41.724;13.346;2023-05-25T12:34:18;96665.47;;;19.03;74.08
51123;BME280;37162;41.724;13.346;2023-05-25T12:36:51;96670.06;;;19.02;74.03
51123;BME280;37162;41.724;13.346;2023-05-25T12:39:37;96656.84;;;19.01;74.08
51123;BME280;37162;41.724;13.346;2023-05-25T12:42:04;96660.34;;;19.01;74.24
51123;BME280;37162;41.724;13.346;2023-05-25T12:44:36;96654.97;;;19.01;74.21
51123;BME280;37162;41.724;13.346;2023-05-25T12:49:37;96654.16;;;19.01;74.19
51123;BME280;37162;41.724;13.346;2023-05-25T12:52:03;96647.94;;;19.00;74.19
51123;BME280;37162;41.724;13.346;2023-05-25T12:54:40;96638.16;;;18.94;74.14
51123;BME280;37162;41.724;13.346;2023-05-25T12:57:09;96646.31;;;18.99;74.26
51123;BME280;37162;41.724;13.346;2023-05-25T12:59:35;96650.06;;;18.98;74.17
51123;BME280;37162;41.724;13.346;2023-05-25T13:02:02;96652.75;;;18.98;74.35
51123;BME280;37162;41.724;13.346;2023-05-25T13:04:29;96651.69;;;18.99;74.33
51123;BME280;37162;41.724;13.346;2023-05-25T13:06:54;96635.81;;;18.98;74.19
51123;BME280;37162;41.724;13.346;2023-05-25T13:09:23;96632.28;;;18.97;74.23